Time;durP1;ratioP1;P1;durP2;ratioP2;P2;SDS_P1;SDS_P2;PMS_P1;PMS_P2;Temp;Humidity;BMP_temperature;BMP_pressure;BME280_temperature;BME280_humidity;BME280_pressure;Samples;Min_cycle;Max_cycle;Signal;HPM_P1;HPM_P2
2024/03/05 00:00:10;;;;;;;15.48;7.53;;;;;;;6.13;63.89;92086.97;2071455;69;20142;-76
2024/03/05 00:02:42;;;;;;;14.32;7.30;;;;;;;6.03;64.03;92084.94;2071500;69;20152;-77
2024/03/05 00:05:09;;;;;;;13.60;7.30;;;;;;;6.03;64.20;92095.41;2071505;69;20160;-77
2024/03/05 00:07:38;;;;;;;11.02;6.45;;;;;;;6.04;64.04;92085.69;2071562;69;20155;-77
2024/03/05 00:10:04;;;;;;;12.68;6.57;;;;;;;6.05;63.01;92090.69;2071447;69;20150;-77
2024/03/05 00:12:30;;;;;;;10.75;5.30;;;;;;;6.13;62.85;92093.28;2071748;69;20253;-77
2024/03/05 00:14:56;;;;;;;12.80;6.68;;;;;;;5.99;63.83;92097.91;2071630;69;20162;-77
2024/03/05 00:17:23;;;;;;;13.93;6.70;;;;;;;5.88;64.16;92090.88;2071417;69;20588;-76
2024/03/05 00:19:52;;;;;;;14.40;6.43;;;;;;;6.02;63.94;92107.91;2071592;69;20170;-76
2024/03/05 00:22:19;;;;;;;13.43;6.07;;;;;;;5.97;63.66;92092.94;2071607;69;20176;-76
2024/03/05 00:24:45;;;;;;;14.40;6.18;;;;;;;6.06;63.51;92108.91;2071631;69;20566;-76
2024/03/05 00:27:10;;;;;;;14.75;6.78;;;;;;;5.89;64.55;92111.16;2071738;69;20132;-76
2024/03/05 00:29:36;;;;;;;15.38;6.32;;;;;;;6.00;63.40;92108.50;2071586;69;20237;-78
2024/03/05 00:32:02;;;;;;;17.90;6.68;;;;;;;5.71;64.86;92102.28;2071251;69;20155;-78
2024/03/05 00:34:28;;;;;;;10.88;5.78;;;;;;;5.53;65.12;92112.91;2071602;69;20183;-78
2024/03/05 00:36:53;;;;;;;16.73;6.05;;;;;;;5.63;65.55;92110.09;2071510;69;20295;-76
2024/03/05 00:43:08;;;;;;;12.63;5.95;;;;;;;5.85;64.31;92120.72;2071509;69;20139;-78
2024/03/05 00:45:35;;;;;;;10.43;5.53;;;;;;;5.86;63.90;92127.81;2071322;69;20207;-77
2024/03/05 00:48:01;;;;;;;13.75;5.60;;;;;;;5.96;63.51;92122.19;2071303;69;20180;-77
2024/03/05 00:50:27;;;;;;;10.93;4.97;;;;;;;5.86;63.19;92115.88;2071400;69;20612;-77
2024/03/05 00:52:53;;;;;;;14.55;5.10;;;;;;;5.93;63.46;92117.06;2070965;69;20157;-76
2024/03/05 00:55:20;;;;;;;10.48;5.20;;;;;;;5.93;63.45;92119.84;2071319;69;20253;-76
2024/03/05 00:57:46;;;;;;;12.60;5.35;;;;;;;5.86;63.88;92116.63;2071323;69;20125;-77
2024/03/05 01:00:19;;;;;;;14.25;5.07;;;;;;;5.90;63.47;92107.78;2071262;69;20652;-77
2024/03/05 01:02:45;;;;;;;9.70;4.65;;;;;;;5.89;63.74;92111.91;2071041;69;20140;-77
2024/03/05 01:05:11;;;;;;;13.70;5.53;;;;;;;6.03;63.43;92112.16;2067924;69;20140;-77
2024/03/05 01:07:39;;;;;;;10.45;5.38;;;;;;;6.12;63.83;92114.16;2071187;69;20201;-77
2024/03/05 01:10:06;;;;;;;12.38;4.93;;;;;;;6.20;62.73;92111.94;2071311;69;20151;-76
2024/03/05 01:12:32;;;;;;;11.90;4.50;;;;;;;6.26;62.00;92115.13;2067904;69;20147;-77
2024/03/05 01:14:58;;;;;;;12.00;5.13;;;;;;;6.35;62.24;92105.94;2071408;69;20504;-76
2024/03/05 01:17:24;;;;;;;12.90;5.00;;;;;;;6.11;63.18;92105.06;2071125;69;20567;-76
2024/03/05 01:19:50;;;;;;;8.98;4.00;;;;;;;6.05;62.32;92104.66;2071527;69;20186;-76
2024/03/05 01:22:16;;;;;;;12.98;4.68;;;;;;;5.94;62.10;92110.88;2071748;69;20512;-77
2024/03/05 01:24:42;;;;;;;11.82;4.20;;;;;;;6.16;61.60;92106.06;2071949;69;20155;-76
2024/03/05 01:27:08;;;;;;;10.77;4.60;;;;;;;6.10;61.23;92094.50;2068413;69;20187;-76
2024/03/05 01:29:34;;;;;;;9.90;4.32;;;;;;;6.40;60.49;92109.75;2068455;69;20137;-76
2024/03/05 01:32:01;;;;;;;10.73;4.30;;;;;;;6.23;60.78;92112.78;2068261;69;20160;-76
2024/03/05 01:34:32;;;;;;;8.30;3.95;;;;;;;6.26;60.14;92106.72;2071888;69;20146;-75
2024/03/05 01:36:58;;;;;;;16.20;4.53;;;;;;;6.11;61.00;92093.16;2071822;69;20260;-77
2024/03/05 01:39:28;;;;;;;14.15;3.90;;;;;;;6.19;60.95;92112.53;2071730;69;20138;-76
2024/03/05 01:41:55;;;;;;;11.27;4.32;;;;;;;6.03;61.79;92107.31;2068375;69;20147;-77
2024/03/05 01:44:22;;;;;;;11.23;4.47;;;;;;;6.17;61.26;92106.78;2068431;69;20207;-77
2024/03/05 01:46:53;;;;;;;13.35;4.35;;;;;;;6.17;60.33;92084.44;2071846;69;20286;-77
2024/03/05 01:49:21;;;;;;;11.52;4.32;;;;;;;6.50;59.83;92110.41;2071886;69;20163;-77
2024/03/05 01:51:53;;;;;;;11.67;4.67;;;;;;;6.41;60.55;92108.41;2071877;69;20144;-76
2024/03/05 01:54:19;;;;;;;12.13;4.53;;;;;;;6.47;60.22;92113.69;2071614;69;20179;-76
2024/03/05 01:56:53;;;;;;;8.35;3.88;;;;;;;6.33;60.81;92107.88;2071581;69;20222;-76
2024/03/05 01:59:21;;;;;;;11.05;4.47;;;;;;;6.12;62.19;92105.78;2071690;69;20168;-77
2024/03/05 02:01:48;;;;;;;10.52;4.03;;;;;;;6.15;60.24;92090.63;2071345;69;20148;-76
2024/03/05 02:08:01;;;;;;;9.80;4.18;;;;;;;6.04;61.06;92108.03;2071724;69;20249;-77
2024/03/05 02:10:27;;;;;;;15.50;4.28;;;;;;;6.03;61.16;92106.56;2071613;69;20243;-76
2024/03/05 02:12:52;;;;;;;10.90;3.95;;;;;;;5.56;61.15;92109.69;2071963;69;20236;-79
2024/03/05 02:15:19;;;;;;;9.52;3.80;;;;;;;5.46;61.19;92103.41;2071736;69;20175;-76
2024/03/05 02:17:45;;;;;;;8.35;3.47;;;;;;;5.75;61.43;92117.25;2071607;69;20579;-75
2024/03/05 02:20:13;;;;;;;12.25;3.92;;;;;;;5.22;62.36;92115.63;2071779;69;20621;-76
2024/03/05 02:22:39;;;;;;;8.38;3.60;;;;;;;5.46;61.99;92119.41;2071383;69;20168;-77
2024/03/05 02:25:05;;;;;;;16.30;4.25;;;;;;;5.59;61.64;92110.56;2071691;69;20519;-75
2024/03/05 02:27:36;;;;;;;10.55;3.70;;;;;;;5.92;60.42;92119.13;2071858;69;20148;-76
2024/03/05 02:30:10;;;;;;;8.15;3.53;;;;;;;6.07;60.62;92127.13;2071620;69;20144;-75
2024/03/05 02:32:40;;;;;;;8.18;3.75;;;;;;;5.99;61.24;92117.47;2071543;69;20147;-75
2024/03/05 02:35:10;;;;;;;10.10;3.78;;;;;;;5.94;61.14;92113.66;2071819;69;20243;-75
2024/03/05 02:37:40;;;;;;;8.45;3.70;;;;;;;6.08;60.69;92120.22;2071624;69;20243;-75
2024/03/05 02:40:08;;;;;;;7.38;3.58;;;;;;;6.08;60.30;92119.47;2071496;69;20152;-76
2024/03/05 02:42:35;;;;;;;9.50;3.72;;;;;;;5.74;60.37;92126.22;2071181;69;20589;-75
2024/03/05 02:45:04;;;;;;;9.88;3.97;;;;;;;6.00;59.77;92116.91;2071309;69;20160;-76
2024/03/05 02:47:32;;;;;;;10.18;3.65;;;;;;;5.82;60.20;92124.72;2071580;69;20156;-77
2024/03/05 02:49:59;;;;;;;12.40;4.00;;;;;;;6.06;59.62;92130.53;2071564;69;20140;-77
2024/03/05 02:52:28;;;;;;;12.32;3.67;;;;;;;6.13;59.63;92135.19;2071675;69;20164;-76
2024/03/05 02:54:54;;;;;;;15.18;3.63;;;;;;;6.00;59.81;92125.28;2065768;69;20152;-77
2024/03/05 02:57:20;;;;;;;11.60;3.38;;;;;;;6.06;59.01;92133.34;2071628;69;20156;-76
2024/03/05 02:59:46;;;;;;;8.80;3.70;;;;;;;6.10;59.28;92134.34;2071624;69;20183;-76
2024/03/05 03:02:11;;;;;;;11.63;4.32;;;;;;;5.85;59.79;92140.28;2071676;69;20157;-75
2024/03/05 03:04:37;;;;;;;10.65;3.33;;;;;;;5.58;60.19;92140.53;2071555;69;20151;-76
2024/03/05 03:07:03;;;;;;;10.43;3.65;;;;;;;5.77;60.08;92141.78;2071423;69;20836;-75
2024/03/05 03:09:29;;;;;;;9.57;3.60;;;;;;;5.86;59.96;92146.59;2071608;69;20704;-75
2024/03/05 03:11:55;;;;;;;10.88;3.70;;;;;;;5.99;59.74;92145.41;2071414;69;20154;-76
2024/03/05 03:14:21;;;;;;;8.60;2.88;;;;;;;6.00;59.41;92152.47;2071422;69;20596;-78
2024/03/05 03:16:49;;;;;;;10.38;3.58;;;;;;;6.01;59.57;92148.34;2071393;69;20623;-77
2024/03/05 03:19:16;;;;;;;12.18;3.50;;;;;;;5.98;59.71;92160.72;2071401;69;20152;-77
2024/03/05 03:21:42;;;;;;;11.07;3.58;;;;;;;5.53;60.64;92149.22;2071421;69;20209;-77
2024/03/05 03:24:11;;;;;;;14.43;3.50;;;;;;;5.79;60.40;92162.22;2071625;69;20767;-77
2024/03/05 03:26:38;;;;;;;10.23;3.72;;;;;;;6.02;59.59;92161.00;2068082;69;20614;-75
2024/03/05 03:29:07;;;;;;;8.90;3.28;;;;;;;5.81;60.12;92167.94;2071482;69;20184;-76
2024/03/05 03:31:35;;;;;;;12.43;3.42;;;;;;;5.94;59.15;92163.22;2071378;69;20157;-76
2024/03/05 03:34:02;;;;;;;10.45;3.83;;;;;;;5.99;58.93;92178.94;2071554;69;20152;-75
2024/03/05 03:36:27;;;;;;;9.25;3.70;;;;;;;6.01;59.56;92174.22;2071178;69;20633;-75
2024/03/05 03:38:53;;;;;;;11.10;4.20;;;;;;;5.96;59.71;92177.34;2068045;69;20125;-77
2024/03/05 03:41:19;;;;;;;13.43;4.22;;;;;;;5.69;60.56;92178.28;2067870;69;20615;-78
2024/03/05 03:43:45;;;;;;;9.13;3.65;;;;;;;5.58;60.63;92178.88;2071394;69;20537;-79
2024/03/05 03:46:12;;;;;;;8.27;3.38;;;;;;;5.50;61.58;92183.91;2071326;69;20143;-76
2024/03/05 03:48:39;;;;;;;10.45;3.47;;;;;;;5.26;61.25;92175.25;2071406;69;20180;-78
2024/03/05 03:51:04;;;;;;;10.88;3.92;;;;;;;5.93;59.72;92179.25;2067951;69;20136;-80
2024/03/05 03:53:33;;;;;;;12.07;3.15;;;;;;;6.02;59.07;92180.56;2071186;69;20140;-78
2024/03/05 03:55:59;;;;;;;13.70;3.88;;;;;;;5.76;59.98;92179.44;2071241;69;20698;-79
2024/03/05 03:58:25;;;;;;;11.63;3.20;;;;;;;6.13;59.07;92181.97;2071294;69;20230;-79
2024/03/05 04:00:52;;;;;;;18.67;3.67;;;;;;;6.30;58.91;92187.34;2071715;69;20147;-79
2024/03/05 04:03:19;;;;;;;14.52;3.53;;;;;;;6.15;60.20;92185.66;2071351;69;20140;-80
2024/03/05 04:05:46;;;;;;;14.52;3.60;;;;;;;6.07;59.24;92185.81;2071051;69;20146;-77
2024/03/05 04:08:11;;;;;;;14.25;3.60;;;;;;;5.77;60.39;92190.03;2071460;69;20141;-77
2024/03/05 04:14:24;;;;;;;12.73;3.17;;;;;;;6.03;59.54;92187.59;2071678;69;20132;-77
2024/03/05 04:16:50;;;;;;;9.70;3.60;;;;;;;5.75;59.34;92191.94;2071370;69;20171;-77
2024/03/05 04:19:16;;;;;;;11.25;3.05;;;;;;;5.90;58.91;92199.97;2071369;69;20151;-78
2024/03/05 04:21:48;;;;;;;12.60;3.38;;;;;;;5.96;59.51;92200.44;2071628;69;20225;-78
2024/03/05 04:24:20;;;;;;;12.95;3.70;;;;;;;6.04;58.94;92203.03;2068170;69;20220;-77
2024/03/05 04:26:52;;;;;;;9.32;3.35;;;;;;;5.97;58.39;92201.88;2071083;69;20611;-77
2024/03/05 04:29:19;;;;;;;9.43;3.22;;;;;;;5.77;58.27;92203.22;2071619;69;20309;-78
2024/03/05 04:32:08;;;;;;;11.32;2.90;;;;;;;6.05;57.61;92204.53;2071375;69;20680;-77
2024/03/05 04:34:40;;;;;;;8.20;3.28;;;;;;;5.72;58.23;92201.47;2068090;69;20129;-77
2024/03/05 04:37:13;;;;;;;9.40;3.30;;;;;;;5.93;57.73;92207.19;2068083;69;20527;-78
2024/03/05 04:39:41;;;;;;;9.48;3.13;;;;;;;5.70;58.19;92215.31;2071608;69;20160;-78
2024/03/05 04:42:07;;;;;;;9.05;3.22;;;;;;;5.93;57.95;92201.59;2068219;69;20587;-78
2024/03/05 04:44:34;;;;;;;9.27;2.92;;;;;;;6.09;57.22;92197.16;2071432;69;20174;-78
2024/03/05 04:47:03;;;;;;;11.65;3.58;;;;;;;6.00;57.69;92211.13;2071378;69;20212;-79
2024/03/05 04:49:29;;;;;;;10.32;3.85;;;;;;;5.56;59.35;92217.84;2071538;69;20658;-78
2024/03/05 04:51:55;;;;;;;13.43;3.90;;;;;;;5.48;59.50;92220.78;2071491;69;20140;-79
2024/03/05 04:54:21;;;;;;;12.52;5.07;;;;;;;5.72;59.04;92226.63;2072157;69;20140;-78
2024/03/05 04:56:49;;;;;;;12.00;5.70;;;;;;;5.89;58.73;92217.31;2072219;69;20152;-79
2024/03/05 04:59:14;;;;;;;11.13;3.58;;;;;;;5.84;58.65;92214.25;2068801;69;20180;-78
2024/03/05 05:01:42;;;;;;;9.23;3.35;;;;;;;5.75;59.27;92220.59;2072048;69;20144;-79
2024/03/05 05:04:08;;;;;;;7.35;3.50;;;;;;;6.02;58.51;92222.47;2072229;69;20152;-78
2024/03/05 05:06:33;;;;;;;11.80;3.95;;;;;;;6.05;58.28;92219.22;2072188;69;20151;-78
2024/03/05 05:08:59;;;;;;;9.48;3.28;;;;;;;6.00;58.83;92219.50;2071977;69;20255;-78
2024/03/05 05:11:26;;;;;;;8.25;3.72;;;;;;;6.13;58.85;92226.69;2071768;69;20182;-78
2024/03/05 05:13:51;;;;;;;11.15;3.72;;;;;;;5.91;59.04;92221.00;2065786;69;20136;-78
2024/03/05 05:16:17;;;;;;;10.50;3.63;;;;;;;5.81;59.78;92231.44;2071897;69;20249;-77
2024/03/05 05:18:43;;;;;;;10.05;4.07;;;;;;;6.18;59.15;92231.22;2071881;69;20141;-78
2024/03/05 05:21:08;;;;;;;6.75;3.05;;;;;;;6.05;58.80;92230.41;2072029;69;20156;-78
2024/03/05 05:23:34;;;;;;;13.30;3.40;;;;;;;6.08;58.31;92225.66;2072041;69;20144;-78
2024/03/05 05:26:00;;;;;;;12.65;3.25;;;;;;;6.12;58.42;92228.75;2072011;69;20598;-78
2024/03/05 05:28:26;;;;;;;7.22;3.17;;;;;;;5.86;58.30;92224.81;2068702;69;20171;-78
2024/03/05 05:30:52;;;;;;;9.90;3.67;;;;;;;5.87;58.08;92237.47;2068565;69;20203;-78
2024/03/05 05:33:18;;;;;;;7.43;3.20;;;;;;;5.81;58.77;92237.03;2071867;69;20133;-78
2024/03/05 05:35:43;;;;;;;14.23;3.10;;;;;;;5.89;58.24;92232.03;2071961;69;20673;-78
2024/03/05 05:38:09;;;;;;;10.70;3.15;;;;;;;6.08;57.36;92239.66;2068708;69;20156;-78
2024/03/05 05:40:38;;;;;;;10.10;3.42;;;;;;;5.67;58.37;92236.03;2072001;69;20172;-78
2024/03/05 05:43:04;;;;;;;13.05;3.70;;;;;;;5.71;59.09;92234.25;2071984;69;20121;-78
2024/03/05 05:45:30;;;;;;;8.85;3.70;;;;;;;5.52;58.99;92240.63;2071915;69;20183;-78
2024/03/05 05:47:56;;;;;;;29.08;10.52;;;;;;;5.70;58.36;92232.81;2071566;69;20235;-78
2024/03/05 05:50:25;;;;;;;19.08;5.68;;;;;;;5.88;58.39;92244.53;2071934;69;20140;-78
2024/03/05 05:52:55;;;;;;;10.52;3.97;;;;;;;5.85;57.54;92221.28;2071915;69;20563;-78
2024/03/05 05:55:24;;;;;;;9.95;4.15;;;;;;;5.49;58.20;92243.84;2068689;69;20132;-79
2024/03/05 05:57:52;;;;;;;10.70;3.72;;;;;;;5.89;57.85;92228.50;2071964;69;20140;-78
2024/03/05 06:00:31;;;;;;;8.20;3.40;;;;;;;5.72;57.81;92246.91;2072000;69;20175;-78
2024/03/05 06:02:58;;;;;;;18.35;4.13;;;;;;;5.95;58.16;92254.81;2071871;69;20240;-78
2024/03/05 06:05:28;;;;;;;11.65;3.65;;;;;;;6.13;57.91;92243.47;2071520;69;20145;-78
2024/03/05 06:07:54;;;;;;;7.32;3.63;;;;;;;6.20;57.80;92242.56;2071832;69;20216;-78
2024/03/05 06:10:22;;;;;;;10.48;3.80;;;;;;;5.54;58.56;92243.56;2072055;69;20171;-79
2024/03/05 06:12:48;;;;;;;9.98;3.30;;;;;;;5.74;58.43;92258.22;2071850;69;20716;-78
2024/03/05 06:15:17;;;;;;;10.65;3.72;;;;;;;5.90;57.96;92261.44;2071918;69;20148;-78
2024/03/05 06:17:43;;;;;;;9.25;3.72;;;;;;;6.22;57.15;92254.59;2071817;69;20136;-78
2024/03/05 06:20:10;;;;;;;11.23;3.83;;;;;;;6.48;56.93;92264.06;2071911;69;20259;-79
2024/03/05 06:22:44;;;;;;;10.02;3.38;;;;;;;6.45;56.73;92253.34;2071984;69;20156;-78
2024/03/05 06:25:13;;;;;;;12.80;3.30;;;;;;;6.53;56.19;92260.22;2072089;69;20156;-78
2024/03/05 06:27:40;;;;;;;9.75;3.20;;;;;;;6.70;55.57;92267.66;2072003;69;20159;-78
2024/03/05 06:30:21;;;;;;;12.88;3.22;;;;;;;6.60;55.85;92269.78;2072020;69;20156;-78
2024/03/05 06:32:51;;;;;;;13.52;3.35;;;;;;;6.28;56.51;92260.63;2067855;69;20517;-78
2024/03/05 06:35:24;;;;;;;9.50;3.65;;;;;;;6.05;56.58;92266.00;2068258;69;20181;-78
2024/03/05 06:37:51;;;;;;;11.02;4.20;;;;;;;6.14;56.24;92275.66;2068552;69;20161;-78
2024/03/05 06:40:19;;;;;;;15.02;3.83;;;;;;;6.51;56.06;92276.16;2068506;69;20241;-79
2024/03/05 06:42:52;;;;;;;9.52;3.45;;;;;;;6.62;55.74;92281.81;2068444;69;20596;-77
2024/03/05 06:45:27;;;;;;;10.48;3.60;;;;;;;6.60;56.14;92266.97;2068516;69;20144;-78
2024/03/05 06:48:07;;;;;;;13.18;4.20;;;;;;;6.72;56.47;92272.66;2067956;69;20593;-76
2024/03/05 06:50:41;;;;;;;9.15;3.33;;;;;;;6.78;56.11;92279.41;2068630;69;20577;-77
2024/03/05 06:58:42;;;;;;;6.93;2.97;;;;;;;6.76;55.02;92287.66;2068498;69;20611;-77
2024/03/05 07:01:08;;;;;;;11.98;3.53;;;;;;;6.60;55.35;92278.16;2068109;69;20149;-78
2024/03/05 07:03:35;;;;;;;10.07;3.40;;;;;;;6.86;55.13;92279.94;2068191;69;20662;-77
2024/03/05 07:06:07;;;;;;;10.93;4.20;;;;;;;7.02;54.62;92277.50;2068230;69;20129;-77
2024/03/05 07:08:39;;;;;;;12.10;3.47;;;;;;;7.26;54.16;92286.78;2067777;69;20210;-76
2024/03/05 07:11:08;;;;;;;10.95;3.28;;;;;;;7.25;54.89;92290.19;2068216;69;20153;-78
2024/03/05 07:13:35;;;;;;;13.88;4.60;;;;;;;6.96;55.79;92296.66;2068209;69;20608;-78
2024/03/05 07:16:00;;;;;;;12.02;3.67;;;;;;;7.09;55.40;92296.16;2068110;69;20609;-78
2024/03/05 07:18:26;;;;;;;9.93;3.92;;;;;;;7.24;54.93;92299.88;2068025;69;20145;-76
2024/03/05 07:20:52;;;;;;;13.77;3.88;;;;;;;7.18;54.47;92297.44;2067879;69;20221;-77
2024/03/05 07:23:19;;;;;;;13.10;4.25;;;;;;;7.16;54.10;92304.97;2068518;69;20152;-78
2024/03/05 07:25:45;;;;;;;16.20;3.67;;;;;;;7.07;54.56;92309.28;2068507;69;20198;-76
2024/03/05 07:28:10;;;;;;;9.43;4.13;;;;;;;7.28;54.20;92302.97;2068612;69;20145;-76
2024/03/05 07:30:37;;;;;;;11.93;4.25;;;;;;;6.80;56.33;92304.72;2068603;69;20145;-77
2024/03/05 07:33:03;;;;;;;14.90;5.00;;;;;;;6.90;56.39;92295.53;2071382;69;20139;-76
2024/03/05 07:35:29;;;;;;;12.30;5.25;;;;;;;7.13;55.99;92299.22;2068456;69;20144;-76
2024/03/05 07:37:56;;;;;;;10.57;4.28;;;;;;;7.26;55.24;92300.03;2071695;69;20622;-76
2024/03/05 07:40:22;;;;;;;9.52;3.88;;;;;;;7.28;54.85;92294.56;2071756;69;20190;-78
2024/03/05 07:42:56;;;;;;;13.70;4.07;;;;;;;7.62;54.56;92301.69;2071713;69;20599;-78
2024/03/05 07:45:22;;;;;;;11.32;4.80;;;;;;;7.37;55.53;92296.56;2071766;69;20144;-77
2024/03/05 07:47:49;;;;;;;17.10;4.90;;;;;;;7.46;55.71;92306.97;2068197;69;20592;-77
2024/03/05 07:50:16;;;;;;;16.63;4.85;;;;;;;7.38;55.88;92309.25;2071394;69;20218;-77
2024/03/05 07:52:44;;;;;;;18.10;5.50;;;;;;;7.56;54.78;92313.25;2071463;69;20188;-77
2024/03/05 07:55:15;;;;;;;14.48;5.03;;;;;;;7.88;54.04;92317.41;2071647;69;20168;-77
2024/03/05 07:57:41;;;;;;;14.23;4.95;;;;;;;7.93;53.89;92307.19;2071713;69;20588;-77
2024/03/05 08:00:17;;;;;;;15.80;6.55;;;;;;;7.67;56.24;92313.91;2071835;69;20151;-78
2024/03/05 08:02:47;;;;;;;20.23;7.40;;;;;;;7.92;56.29;92316.91;2071660;69;20679;-78
2024/03/05 08:05:18;;;;;;;18.15;7.45;;;;;;;7.69;57.28;92320.34;2071687;69;20186;-77
2024/03/05 08:07:54;;;;;;;13.50;4.57;;;;;;;7.54;56.94;92320.78;2071695;69;20631;-77
2024/03/05 08:10:25;;;;;;;13.65;5.05;;;;;;;7.54;57.21;92317.97;2071945;69;20236;-77
2024/03/05 08:12:54;;;;;;;16.60;4.97;;;;;;;7.94;56.45;92324.75;2071662;69;20591;-76
2024/03/05 08:15:20;;;;;;;10.82;4.40;;;;;;;8.15;55.73;92325.44;2070985;69;20260;-77
2024/03/05 08:17:47;;;;;;;12.40;4.68;;;;;;;8.10;55.37;92322.97;2071185;69;20186;-78
2024/03/05 08:20:14;;;;;;;15.18;4.45;;;;;;;8.00;55.22;92327.94;2071701;69;20141;-78
2024/03/05 08:22:41;;;;;;;11.40;4.60;;;;;;;8.23;54.63;92322.41;2071689;69;20164;-78
2024/03/05 08:25:09;;;;;;;9.35;4.30;;;;;;;8.25;54.23;92314.13;2071548;69;20172;-78
2024/03/05 08:27:38;;;;;;;12.93;4.82;;;;;;;8.44;54.03;92312.50;2071442;69;20160;-77
2024/03/05 08:30:18;;;;;;;12.57;4.57;;;;;;;8.55;53.69;92308.97;2067950;69;20542;-77
2024/03/05 08:32:44;;;;;;;16.65;5.20;;;;;;;8.72;53.56;92314.25;2071043;69;20167;-77
2024/03/05 08:35:13;;;;;;;14.57;5.03;;;;;;;8.78;53.45;92311.78;2068023;69;20156;-77
2024/03/05 08:37:40;;;;;;;14.00;5.30;;;;;;;8.89;53.40;92321.56;2071545;69;20144;-78
2024/03/05 08:40:13;;;;;;;20.27;7.47;;;;;;;8.83;53.22;92293.84;2071597;69;20149;-77
2024/03/05 08:42:49;;;;;;;25.42;10.35;;;;;;;9.02;53.33;92306.91;2071382;69;20543;-77
2024/03/05 08:45:25;;;;;;;24.20;8.38;;;;;;;9.21;53.53;92314.38;2071199;69;20152;-78
2024/03/05 08:47:53;;;;;;;17.15;6.10;;;;;;;9.38;53.26;92304.81;2071384;69;20243;-78
2024/03/05 08:50:19;;;;;;;21.00;5.53;;;;;;;9.45;52.54;92309.44;2071433;69;20142;-78
2024/03/05 08:52:45;;;;;;;13.15;4.70;;;;;;;9.58;50.73;92303.19;2071084;69;20171;-78
2024/03/05 08:55:12;;;;;;;13.30;4.30;;;;;;;9.52;50.77;92314.06;2071349;69;20584;-78
2024/03/05 08:57:39;;;;;;;13.40;4.70;;;;;;;9.46;50.15;92310.16;2071328;69;20156;-78
2024/03/05 09:00:07;;;;;;;19.60;6.07;;;;;;;8.06;55.74;92303.06;2071601;69;20268;-78
2024/03/05 09:02:33;;;;;;;14.98;5.95;;;;;;;8.52;55.25;92296.13;2071405;69;20137;-78
2024/03/05 09:04:59;;;;;;;12.63;5.55;;;;;;;9.22;53.55;92298.97;2071237;69;20231;-76
2024/03/05 09:07:25;;;;;;;13.07;5.70;;;;;;;8.97;53.52;92302.41;2071059;69;20190;-78
2024/03/05 09:09:51;;;;;;;16.55;5.95;;;;;;;9.02;53.56;92295.69;2071302;69;20227;-78
2024/03/05 09:12:18;;;;;;;13.63;5.10;;;;;;;9.06;54.09;92293.13;2071223;69;20509;-79
2024/03/05 09:14:44;;;;;;;20.48;8.98;;;;;;;9.48;53.34;92299.78;2068315;69;20243;-77
2024/03/05 09:17:10;;;;;;;22.23;9.40;;;;;;;9.66;52.73;92298.00;2071528;69;20156;-77
2024/03/05 09:19:36;;;;;;;20.02;6.28;;;;;;;9.96;52.47;92298.31;2068296;69;20140;-78
2024/03/05 09:22:04;;;;;;;11.77;5.15;;;;;;;10.18;51.60;92299.56;2068249;69;20619;-77
2024/03/05 09:24:31;;;;;;;18.63;4.90;;;;;;;9.57;52.42;92287.66;2068310;69;20175;-79
2024/03/05 09:27:00;;;;;;;14.85;5.00;;;;;;;9.18;54.21;92300.81;2071872;69;20585;-79
2024/03/05 09:29:27;;;;;;;14.10;5.43;;;;;;;9.59;53.04;92301.84;2071782;69;20193;-79
2024/03/05 09:31:54;;;;;;;20.02;5.60;;;;;;;9.63;52.68;92298.53;2072080;69;20167;-82
2024/03/05 09:34:21;;;;;;;21.27;5.28;;;;;;;9.92;52.41;92301.59;2071408;69;20168;-78
2024/03/05 09:36:49;;;;;;;15.43;4.97;;;;;;;10.15;50.91;92300.78;2071419;69;20213;-82
2024/03/05 09:39:19;;;;;;;11.88;5.93;;;;;;;10.12;50.53;92279.50;2071639;69;20619;-81
2024/03/05 09:41:44;;;;;;;16.63;5.32;;;;;;;10.47;49.98;92309.59;2071939;69;20146;-81
2024/03/05 09:44:11;;;;;;;15.13;5.38;;;;;;;10.28;50.45;92315.56;2068653;69;20164;-79
2024/03/05 09:50:25;;;;;;;16.42;5.72;;;;;;;10.05;49.37;92305.84;2072086;69;20166;-79
2024/03/05 09:52:51;;;;;;;14.95;4.90;;;;;;;10.06;49.20;92304.50;2071629;69;20218;-79
2024/03/05 09:55:19;;;;;;;12.38;5.55;;;;;;;10.22;49.67;92292.66;2072066;69;20168;-82
2024/03/05 09:57:48;;;;;;;16.45;5.60;;;;;;;10.55;49.90;92301.59;2071982;69;20338;-83
2024/03/05 10:00:20;;;;;;;18.65;6.20;;;;;;;10.80;50.50;92297.25;2072085;69;20197;-82
2024/03/05 10:02:50;;;;;;;25.27;5.60;;;;;;;10.81;50.20;92298.72;2071890;69;20136;-81
2024/03/05 10:05:18;;;;;;;18.10;5.28;;;;;;;10.78;49.17;92303.50;2072169;69;20554;-81
2024/03/05 10:07:44;;;;;;;15.07;5.72;;;;;;;10.37;50.03;92292.88;2071946;69;20583;-78
2024/03/05 10:10:12;;;;;;;17.38;5.60;;;;;;;10.15;51.04;92281.09;2071850;69;20225;-77
2024/03/05 10:12:39;;;;;;;13.68;5.13;;;;;;;9.74;51.92;92292.13;2068363;69;20283;-78
2024/03/05 10:15:22;;;;;;;17.38;5.20;;;;;;;10.59;50.23;92293.38;2071810;69;20144;-77
2024/03/05 10:17:50;;;;;;;11.18;4.82;;;;;;;11.40;49.83;92290.50;2071659;69;20669;-78
2024/03/05 10:20:39;;;;;;;11.52;4.93;;;;;;;11.59;50.15;92301.38;2071745;69;20144;-78
2024/03/05 10:23:07;;;;;;;15.50;4.90;;;;;;;11.86;48.08;92292.16;2071791;69;20145;-78
2024/03/05 10:25:35;;;;;;;14.40;4.97;;;;;;;12.13;48.92;92284.97;2071822;69;20232;-78
2024/03/05 10:28:02;;;;;;;8.18;3.80;;;;;;;12.16;48.22;92292.19;2071719;69;20168;-78
2024/03/05 10:30:32;;;;;;;9.32;3.97;;;;;;;12.24;47.48;92294.69;2068408;69;20659;-78
2024/03/05 10:33:00;;;;;;;10.80;3.85;;;;;;;11.95;47.57;92293.28;2071521;69;20607;-78
2024/03/05 10:35:27;;;;;;;8.60;3.90;;;;;;;11.65;48.48;92287.56;2071802;69;20137;-78
2024/03/05 10:37:59;;;;;;;15.20;4.30;;;;;;;12.28;47.55;92284.31;2071857;69;20155;-78
2024/03/05 10:40:28;;;;;;;9.50;3.83;;;;;;;12.67;46.73;92272.72;2071712;69;20140;-78
2024/03/05 10:42:58;;;;;;;17.73;4.22;;;;;;;13.22;46.24;92280.16;2071937;69;20197;-78
2024/03/05 10:45:28;;;;;;;12.63;4.18;;;;;;;13.34;44.99;92279.97;2071628;69;20220;-78
2024/03/05 10:47:58;;;;;;;10.85;4.00;;;;;;;14.32;45.15;92281.22;2071736;69;20149;-78
2024/03/05 10:50:27;;;;;;;8.55;4.20;;;;;;;14.54;43.96;92287.09;2071679;69;20265;-79
2024/03/05 10:52:57;;;;;;;12.90;3.88;;;;;;;14.75;42.94;92283.66;2068685;69;20500;-78
2024/03/05 10:55:23;;;;;;;10.18;3.95;;;;;;;14.77;42.58;92283.75;2071717;69;20144;-78
2024/03/05 11:00:42;;;;;;;12.48;4.32;;;;;;;14.91;42.71;92275.78;2068474;69;20151;-79
2024/03/05 11:03:10;;;;;;;15.15;4.93;;;;;;;13.85;44.15;92268.00;2071601;69;20121;-78
2024/03/05 11:05:53;;;;;;;11.90;4.97;;;;;;;14.47;43.85;92280.41;2071752;69;20739;-78
2024/03/05 11:08:21;;;;;;;12.50;4.47;;;;;;;14.04;44.28;92269.47;2068547;69;20148;-78
2024/03/05 11:10:51;;;;;;;11.50;4.38;;;;;;;14.08;44.19;92270.38;2071709;69;20205;-79
2024/03/05 11:13:18;;;;;;;11.02;4.38;;;;;;;13.96;45.02;92272.69;2071830;69;20125;-78
2024/03/05 11:15:44;;;;;;;14.85;4.55;;;;;;;13.58;45.05;92274.63;2068328;69;20189;-79
2024/03/05 11:18:29;;;;;;;11.27;4.50;;;;;;;13.37;45.03;92273.75;2071573;69;20685;-78
2024/03/05 11:20:56;;;;;;;12.95;5.13;;;;;;;13.99;44.23;92266.47;2071558;69;20152;-79
2024/03/05 11:23:27;;;;;;;12.90;4.50;;;;;;;13.79;44.07;92260.00;2071670;69;20175;-79
2024/03/05 11:26:00;;;;;;;14.27;4.25;;;;;;;13.42;44.87;92258.44;2071602;69;20137;-79
2024/03/05 11:28:26;;;;;;;9.27;4.60;;;;;;;13.29;44.92;92255.72;2071605;69;20147;-79
2024/03/05 11:31:17;;;;;;;11.27;4.43;;;;;;;13.64;44.87;92258.66;2071477;69;20491;-79
2024/03/05 11:33:51;;;;;;;13.18;4.85;;;;;;;12.76;46.77;92258.97;2071615;69;20147;-79
2024/03/05 11:36:22;;;;;;;14.43;4.28;;;;;;;13.23;46.37;92253.34;2071772;69;20148;-79
2024/03/05 11:39:14;;;;;;;11.52;5.03;;;;;;;13.27;45.89;92253.53;2068515;69;20592;-79
2024/03/05 11:41:45;;;;;;;13.90;5.30;;;;;;;14.08;44.88;92242.06;2071723;69;20178;-78
2024/03/05 11:44:12;;;;;;;10.13;4.93;;;;;;;14.14;43.68;92241.59;2071619;69;20211;-78
2024/03/05 11:46:49;;;;;;;14.43;5.40;;;;;;;14.00;44.27;92236.06;2071647;69;20527;-78
2024/03/05 11:49:17;;;;;;;12.43;5.28;;;;;;;14.95;43.27;92235.53;2071581;69;20511;-79
2024/03/05 11:51:47;;;;;;;10.77;5.30;;;;;;;14.86;43.82;92234.50;2065502;69;20696;-78
2024/03/05 11:54:17;;;;;;;13.70;5.32;;;;;;;14.63;43.62;92221.59;2071767;69;20136;-79
2024/03/05 12:00:30;;;;;;;11.73;6.00;;;;;;;15.23;43.97;92222.41;2071626;69;20155;-78
2024/03/05 12:02:56;;;;;;;11.73;5.97;;;;;;;15.02;43.61;92225.84;2071422;69;20144;-79
2024/03/05 12:05:23;;;;;;;13.23;5.90;;;;;;;13.85;44.41;92214.97;2071912;69;20148;-79